createdAt,value
2022-12-03T00:02:05.343Z,90.61
2022-12-03T00:05:08.877Z,90.23
2022-12-03T00:08:12.539Z,89.67
2022-12-03T00:11:15.295Z,90.29
2022-12-03T00:14:17.995Z,90.39
2022-12-03T00:17:28.206Z,90.15
2022-12-03T00:20:30.949Z,90.05
2022-12-03T00:23:37.195Z,89.86
2022-12-03T00:26:44.370Z,90.39
2022-12-03T00:29:47.069Z,90.76
2022-12-03T00:32:51.086Z,90.96
2022-12-03T00:35:56.847Z,91.02
2022-12-03T00:38:59.524Z,90.16
2022-12-03T00:42:02.203Z,90.04
2022-12-03T00:45:05.662Z,89.86
2022-12-03T00:48:09.780Z,90.70
2022-12-03T00:51:12.465Z,90.20
2022-12-03T00:54:18.130Z,90.19
2022-12-03T00:57:20.823Z,91.00
2022-12-03T01:00:25.248Z,90.84
2022-12-03T01:03:29.484Z,91.05
2022-12-03T01:06:32.209Z,91.65
2022-12-03T01:09:34.966Z,91.29
2022-12-03T01:12:37.752Z,89.41
2022-12-03T01:15:40.577Z,89.61
2022-12-03T01:18:46.198Z,88.98
2022-12-03T01:21:51.261Z,89.84
2022-12-03T01:24:54.143Z,89.62
2022-12-03T01:27:57.257Z,89.84
2022-12-03T01:31:17.381Z,90.21
2022-12-03T01:34:21.423Z,90.53
2022-12-03T01:37:26.697Z,89.91
2022-12-03T01:40:29.365Z,89.20
2022-12-03T01:43:32.303Z,89.26
2022-12-03T01:46:40.403Z,89.60
2022-12-03T01:49:47.904Z,90.58
2022-12-03T01:52:50.815Z,89.44
2022-12-03T01:55:53.587Z,89.13
2022-12-03T01:58:56.509Z,88.87
2022-12-03T02:01:59.347Z,89.30
2022-12-03T02:05:08.531Z,90.40
2022-12-03T02:08:29.612Z,90.39
2022-12-03T02:11:36.617Z,90.14
2022-12-03T02:14:39.587Z,88.94
2022-12-03T02:17:43.705Z,88.75
2022-12-03T02:20:54.239Z,89.31
2022-12-03T02:24:06.007Z,89.33
2022-12-03T02:27:10.277Z,90.01
2022-12-03T02:30:15.470Z,88.83
2022-12-03T02:33:18.318Z,87.43
2022-12-03T02:36:21.746Z,87.83
2022-12-03T02:39:30.159Z,88.50
2022-12-03T02:42:37.307Z,88.98
2022-12-03T02:45:44.340Z,87.72
2022-12-03T02:48:47.113Z,87.70
2022-12-03T02:51:49.990Z,88.05
2022-12-03T02:54:53.376Z,87.63
2022-12-03T02:57:58.267Z,88.26
2022-12-03T03:01:02.948Z,88.37
2022-12-03T03:04:06.889Z,88.21
2022-12-03T03:07:10.497Z,88.48
2022-12-03T03:10:19.511Z,89.05
2022-12-03T03:13:24.302Z,89.03
2022-12-03T03:16:27.998Z,88.99
2022-12-03T03:19:30.988Z,89.01
2022-12-03T03:22:34.431Z,88.99
2022-12-03T03:25:37.919Z,89.21
2022-12-03T03:28:51.087Z,89.63
2022-12-03T03:31:54.075Z,89.61
2022-12-03T03:34:57.513Z,89.71
2022-12-03T03:38:00.958Z,89.47
2022-12-03T03:41:06.851Z,89.38
2022-12-03T03:44:11.376Z,89.82
2022-12-03T03:47:14.509Z,89.80
2022-12-03T03:50:18.273Z,89.88
2022-12-03T03:53:22.595Z,90.04
2022-12-03T03:56:25.419Z,89.81
2022-12-03T03:59:29.902Z,89.96
2022-12-03T04:02:33.601Z,89.81
2022-12-03T04:05:36.501Z,89.22
2022-12-03T04:08:39.263Z,89.65
2022-12-03T04:11:59.888Z,90.03
2022-12-03T04:15:04.356Z,89.33
2022-12-03T04:18:30.796Z,89.50
2022-12-03T04:21:50.890Z,90.22
2022-12-03T04:25:16.867Z,90.71
2022-12-03T04:28:37.101Z,90.90
2022-12-03T04:31:59.071Z,90.62
2022-12-03T04:35:19.463Z,90.54
2022-12-03T04:38:22.285Z,90.72
2022-12-03T04:41:25.030Z,90.88
2022-12-03T04:44:39.738Z,90.92
2022-12-03T04:47:43.790Z,90.31
2022-12-03T04:50:46.584Z,90.56
2022-12-03T04:53:50.124Z,89.28
2022-12-03T04:56:52.932Z,89.23
2022-12-03T04:59:55.634Z,88.62
2022-12-03T05:02:59.946Z,88.93
2022-12-03T05:06:04.077Z,88.97
2022-12-03T05:09:06.893Z,89.23
2022-12-03T05:12:09.659Z,89.73
2022-12-03T05:15:12.554Z,89.03
2022-12-03T05:18:20.204Z,89.39
2022-12-03T05:21:22.972Z,88.92
2022-12-03T05:24:28.032Z,89.40
2022-12-03T05:27:30.809Z,89.29
2022-12-03T05:30:33.891Z,89.70
2022-12-03T05:33:43.735Z,89.86
2022-12-03T05:36:47.076Z,89.73
2022-12-03T05:39:49.814Z,89.58
2022-12-03T05:43:02.842Z,90.13
2022-12-03T05:46:05.636Z,89.70
2022-12-03T05:49:09.827Z,89.29
2022-12-03T05:52:13.835Z,89.57
2022-12-03T05:55:17.271Z,89.32
2022-12-03T05:58:20.225Z,89.59
2022-12-03T06:01:22.954Z,89.18
2022-12-03T06:04:27.167Z,87.83
2022-12-03T06:07:32.929Z,88.31
2022-12-03T06:10:35.721Z,89.00
2022-12-03T06:13:38.445Z,88.56
2022-12-03T06:16:41.238Z,88.85
2022-12-03T06:19:45.397Z,88.51
2022-12-03T06:22:48.864Z,88.80
2022-12-03T06:25:51.597Z,88.71
2022-12-03T06:28:57.760Z,88.60
2022-12-03T06:32:00.500Z,88.54
2022-12-03T06:35:05.451Z,89.28
2022-12-03T06:38:08.203Z,89.48
2022-12-03T06:41:10.884Z,90.28
2022-12-03T06:44:13.907Z,89.34
2022-12-03T06:47:17.209Z,89.91
2022-12-03T06:50:21.335Z,88.88
2022-12-03T06:53:26.174Z,89.43
2022-12-03T06:56:35.084Z,89.51
2022-12-03T06:59:39.613Z,89.61
2022-12-03T07:02:44.709Z,89.65
2022-12-03T07:05:49.236Z,89.55
2022-12-03T07:08:51.953Z,89.84
2022-12-03T07:11:54.692Z,90.59
2022-12-03T07:14:57.433Z,90.96
2022-12-03T07:18:00.171Z,91.41
2022-12-03T07:21:07.539Z,90.40
2022-12-03T07:24:11.208Z,90.71
2022-12-03T07:27:13.942Z,90.08
2022-12-03T07:30:17.392Z,90.79
2022-12-03T07:33:20.081Z,90.55
2022-12-03T07:36:24.170Z,90.17
2022-12-03T07:39:26.993Z,90.47
2022-12-03T07:42:29.748Z,90.75
2022-12-03T07:45:32.501Z,90.50
2022-12-03T07:48:35.421Z,90.28
2022-12-03T07:51:39.531Z,90.20
2022-12-03T07:54:42.435Z,89.70
2022-12-03T07:57:45.944Z,89.73
2022-12-03T08:00:50.542Z,89.96
2022-12-03T08:03:53.263Z,90.40
2022-12-03T08:06:57.676Z,90.37
2022-12-03T08:10:00.457Z,89.79
2022-12-03T08:13:04.057Z,90.15
2022-12-03T08:16:16.421Z,89.81
2022-12-03T08:19:20.260Z,90.15
2022-12-03T08:22:24.359Z,90.22
2022-12-03T08:25:29.417Z,90.23
2022-12-03T08:28:35.233Z,90.30
2022-12-03T08:31:38.132Z,89.66
2022-12-03T08:34:42.792Z,90.02
2022-12-03T08:37:46.961Z,89.99
2022-12-03T08:40:51.444Z,90.26
2022-12-03T08:43:54.196Z,89.98
2022-12-03T08:47:03.385Z,89.87
2022-12-03T08:50:27.352Z,90.11
2022-12-03T08:53:35.333Z,90.13
2022-12-03T08:56:38.216Z,89.90
2022-12-03T08:59:45.379Z,89.66
2022-12-03T09:02:51.222Z,89.67
2022-12-03T09:05:57.152Z,89.78
2022-12-03T09:09:06.598Z,89.78
2022-12-03T09:12:09.763Z,89.59
2022-12-03T09:15:12.645Z,89.25
2022-12-03T09:18:18.463Z,89.06
2022-12-03T09:21:21.319Z,89.41
2022-12-03T09:24:25.473Z,89.15
2022-12-03T09:27:28.354Z,89.27
2022-12-03T09:30:31.996Z,88.88
2022-12-03T09:33:35.145Z,88.65
2022-12-03T09:36:56.170Z,88.35
2022-12-03T09:40:00.412Z,88.69
2022-12-03T09:43:03.921Z,88.17
2022-12-03T09:46:07.492Z,88.53
2022-12-03T09:49:16.106Z,88.13
2022-12-03T09:52:24.431Z,88.44
2022-12-03T09:55:30.119Z,88.38
2022-12-03T09:58:34.923Z,88.04
2022-12-03T10:01:43.062Z,88.42
2022-12-03T10:04:45.979Z,88.21
2022-12-03T10:07:53.555Z,87.96
2022-12-03T10:10:57.700Z,88.00
2022-12-03T10:14:00.380Z,88.07
2022-12-03T10:17:05.130Z,88.23
2022-12-03T10:20:11.735Z,88.20
2022-12-03T10:23:22.159Z,87.92
2022-12-03T10:26:39.835Z,87.58
2022-12-03T10:29:42.714Z,87.73
2022-12-03T10:32:50.817Z,87.66
2022-12-03T10:35:55.614Z,87.64
2022-12-03T10:39:13.198Z,87.34
2022-12-03T10:42:17.297Z,87.48
2022-12-03T10:45:22.587Z,87.23
2022-12-03T10:48:27.454Z,86.72
2022-12-03T10:51:30.233Z,86.91
2022-12-03T10:54:36.196Z,87.06
2022-12-03T10:57:45.953Z,86.73
2022-12-03T11:00:50.124Z,87.14
2022-12-03T11:03:54.932Z,87.03
2022-12-03T11:06:57.654Z,87.25
2022-12-03T11:10:02.999Z,87.03
2022-12-03T11:13:41.996Z,87.05
2022-12-03T11:17:10.087Z,86.40
2022-12-03T11:20:29.388Z,86.86
2022-12-03T11:24:28.869Z,87.13
2022-12-03T11:27:31.742Z,87.07
2022-12-03T11:31:01.212Z,86.26
2022-12-03T11:34:42.143Z,86.18
2022-12-03T11:37:44.969Z,86.54
2022-12-03T11:41:08.777Z,86.47
2022-12-03T11:44:31.244Z,86.63
2022-12-03T11:47:38.088Z,86.31
2022-12-03T11:50:44.008Z,85.87
2022-12-03T11:53:47.317Z,86.01
2022-12-03T11:56:51.504Z,86.10
2022-12-03T12:00:02.805Z,85.31
2022-12-03T12:03:05.590Z,85.45
2022-12-03T12:06:11.480Z,85.51
2022-12-03T12:09:14.179Z,85.68
2022-12-03T12:12:30.536Z,85.67
2022-12-03T12:15:45.142Z,84.31
2022-12-03T12:18:53.680Z,85.21
2022-12-03T12:22:14.211Z,85.32
2022-12-03T12:25:37.271Z,84.67
2022-12-03T12:28:40.402Z,85.22
2022-12-03T12:31:43.230Z,85.61
2022-12-03T12:34:47.644Z,85.40
2022-12-03T12:37:59.046Z,85.14
2022-12-03T12:41:07.792Z,85.42
2022-12-03T12:44:11.633Z,85.45
2022-12-03T12:47:14.425Z,84.03
2022-12-03T12:50:18.785Z,84.77
2022-12-03T12:53:30.007Z,83.85
2022-12-03T12:56:33.669Z,83.03
2022-12-03T12:59:36.696Z,82.99
2022-12-03T13:02:45.823Z,83.42
2022-12-03T13:05:50.678Z,84.28
2022-12-03T13:08:55.803Z,84.55
2022-12-03T13:12:00.464Z,85.06
2022-12-03T13:15:11.081Z,84.78
2022-12-03T13:18:27.242Z,85.50
2022-12-03T13:21:38.748Z,85.37
2022-12-03T13:24:45.414Z,85.98
2022-12-03T13:27:48.157Z,85.44
2022-12-03T13:30:51.172Z,85.64
2022-12-03T13:33:54.976Z,85.80
2022-12-03T13:36:58.781Z,85.98
2022-12-03T13:40:12.685Z,86.29
2022-12-03T13:43:17.512Z,85.92
2022-12-03T13:46:20.459Z,86.49
2022-12-03T13:49:25.065Z,86.07
2022-12-03T13:52:28.054Z,86.53
2022-12-03T13:55:32.853Z,86.35
2022-12-03T13:58:37.726Z,86.52
2022-12-03T14:01:40.729Z,87.14
2022-12-03T14:04:43.551Z,86.82
2022-12-03T14:07:48.504Z,86.67
2022-12-03T14:10:58.612Z,87.25
2022-12-03T14:14:03.269Z,87.02
2022-12-03T14:17:06.621Z,87.25
2022-12-03T14:20:10.414Z,87.02
2022-12-03T14:23:13.410Z,87.81
2022-12-03T14:26:17.664Z,88.15
2022-12-03T14:29:20.484Z,87.67
2022-12-03T14:32:27.603Z,87.37
2022-12-03T14:35:30.626Z,88.11
2022-12-03T14:38:33.510Z,88.00
2022-12-03T14:41:55.091Z,88.36
2022-12-03T14:44:57.747Z,89.54
2022-12-03T14:48:00.457Z,88.98
2022-12-03T14:51:03.760Z,88.26
2022-12-03T14:54:06.637Z,87.68
2022-12-03T14:57:11.566Z,87.54
2022-12-03T15:00:15.601Z,88.16
2022-12-03T15:03:18.387Z,89.21
2022-12-03T15:06:21.110Z,88.31
2022-12-03T15:09:23.872Z,87.98
2022-12-03T15:12:28.826Z,88.42
2022-12-03T15:15:31.545Z,88.17
2022-12-03T15:18:34.523Z,88.20
2022-12-03T15:21:37.325Z,88.17
2022-12-03T15:24:40.448Z,87.82
2022-12-03T15:27:44.427Z,87.90
2022-12-03T15:30:47.062Z,88.58
2022-12-03T15:33:49.839Z,88.59
2022-12-03T15:36:53.096Z,87.82
2022-12-03T15:39:55.993Z,87.60
2022-12-03T15:43:00.273Z,87.82
2022-12-03T15:46:03.511Z,87.92
2022-12-03T15:49:06.176Z,88.31
2022-12-03T15:52:08.985Z,87.88
2022-12-03T15:55:11.742Z,87.97
2022-12-03T15:58:15.804Z,87.65
2022-12-03T16:01:18.687Z,87.04
2022-12-03T16:04:24.503Z,87.47
2022-12-03T16:07:30.944Z,88.03
2022-12-03T16:10:33.677Z,87.49
2022-12-03T16:13:37.767Z,87.43
2022-12-03T16:16:44.220Z,88.48
2022-12-03T16:19:47.254Z,87.23
2022-12-03T16:22:49.969Z,86.42
2022-12-03T16:25:52.665Z,86.13
2022-12-03T16:29:00.107Z,86.89
2022-12-03T16:32:03.812Z,87.59
2022-12-03T16:35:07.230Z,86.73
2022-12-03T16:38:09.942Z,86.60
2022-12-03T16:41:12.668Z,86.07
2022-12-03T16:44:31.931Z,86.05
2022-12-03T16:47:35.222Z,85.81
2022-12-03T16:50:38.105Z,86.97
2022-12-03T16:53:40.833Z,86.24
2022-12-03T16:56:44.519Z,86.22
2022-12-03T16:59:48.549Z,85.70
2022-12-03T17:02:53.852Z,86.29
2022-12-03T17:05:56.618Z,86.55
2022-12-03T17:08:59.335Z,86.82
2022-12-03T17:12:05.096Z,86.75
2022-12-03T17:15:10.036Z,86.82
2022-12-03T17:18:12.870Z,86.29
2022-12-03T17:21:15.606Z,86.17
2022-12-03T17:24:18.304Z,86.44
2022-12-03T17:27:23.198Z,86.98
2022-12-03T17:30:37.868Z,86.55
2022-12-03T17:33:42.957Z,85.51
2022-12-03T17:36:45.777Z,85.57
2022-12-03T17:39:48.540Z,85.16
2022-12-03T17:42:51.287Z,86.83
2022-12-03T17:45:55.366Z,85.88
2022-12-03T17:48:58.096Z,86.30
2022-12-03T17:52:00.955Z,84.73
2022-12-03T17:55:16.326Z,85.56
2022-12-03T17:58:24.191Z,86.15
2022-12-03T18:01:31.185Z,84.21
2022-12-03T18:04:34.111Z,85.66
2022-12-03T18:07:36.852Z,85.49
2022-12-03T18:10:39.802Z,85.39
2022-12-03T18:13:42.772Z,85.91
2022-12-03T18:16:46.939Z,86.14
2022-12-03T18:19:49.702Z,86.52
2022-12-03T18:22:52.817Z,86.25
2022-12-03T18:25:58.815Z,86.36
2022-12-03T18:29:02.173Z,86.20
2022-12-03T18:32:27.016Z,84.67
2022-12-03T18:35:31.244Z,85.17
2022-12-03T18:38:34.747Z,85.48
2022-12-03T18:41:38.149Z,83.63
2022-12-03T18:44:43.788Z,83.80
2022-12-03T18:47:52.058Z,82.54
2022-12-03T18:50:56.417Z,83.51
2022-12-03T18:54:02.205Z,82.89
2022-12-03T18:57:05.156Z,81.66
2022-12-03T19:00:13.412Z,82.03
2022-12-03T19:03:18.226Z,84.08
2022-12-03T19:06:24.443Z,84.39
2022-12-03T19:09:27.594Z,82.82
2022-12-03T19:12:33.509Z,84.00
2022-12-03T19:15:39.479Z,82.87
2022-12-03T19:18:44.054Z,82.06
2022-12-03T19:21:46.789Z,83.11
2022-12-03T19:24:49.578Z,82.85
2022-12-03T19:27:55.075Z,83.26
2022-12-03T19:30:59.566Z,82.79
2022-12-03T19:34:03.630Z,83.32
2022-12-03T19:37:07.171Z,83.84
2022-12-03T19:40:11.260Z,83.84
2022-12-03T19:43:14.020Z,83.79
2022-12-03T19:46:17.195Z,84.28
2022-12-03T19:49:22.305Z,82.96
2022-12-03T19:52:28.116Z,82.89
2022-12-03T19:55:30.803Z,81.89
2022-12-03T19:58:34.520Z,81.75
2022-12-03T20:01:40.384Z,81.52
2022-12-03T20:04:44.556Z,82.24
2022-12-03T20:07:47.429Z,81.51
2022-12-03T20:10:50.189Z,82.96
2022-12-03T20:13:54.915Z,81.88
2022-12-03T20:16:57.751Z,82.24
2022-12-03T20:20:02.195Z,81.87
2022-12-03T20:23:04.971Z,79.53
2022-12-03T20:26:09.360Z,80.09
2022-12-03T20:29:12.211Z,81.44
2022-12-03T20:32:15.171Z,82.45
2022-12-03T20:35:19.528Z,81.33
2022-12-03T20:38:23.009Z,82.56
2022-12-03T20:41:26.286Z,82.82
2022-12-03T20:44:31.394Z,82.49
2022-12-03T20:47:34.170Z,80.68
2022-12-03T20:50:40.198Z,80.58
2022-12-03T20:53:44.025Z,80.28
2022-12-03T20:56:46.735Z,82.12
2022-12-03T20:59:49.596Z,82.77
2022-12-03T21:02:53.103Z,83.20
2022-12-03T21:06:02.348Z,83.40
2022-12-03T21:09:07.254Z,82.20
2022-12-03T21:12:09.963Z,82.43
2022-12-03T21:15:12.692Z,80.94
2022-12-03T21:18:17.665Z,79.43
2022-12-03T21:21:22.256Z,81.56
2022-12-03T21:24:25.048Z,82.19
2022-12-03T21:27:27.754Z,82.37
2022-12-03T21:30:30.648Z,82.46
2022-12-03T21:33:34.248Z,80.82
2022-12-03T21:36:38.324Z,82.26
2022-12-03T21:39:41.077Z,82.62
2022-12-03T21:42:44.119Z,82.88
2022-12-03T21:45:47.159Z,82.83
2022-12-03T21:48:50.171Z,82.82
2022-12-03T21:51:56.733Z,83.13
2022-12-03T21:54:59.463Z,83.05
2022-12-03T21:58:02.936Z,83.21
2022-12-03T22:01:13.005Z,81.99
2022-12-03T22:04:16.237Z,82.70
2022-12-03T22:07:20.574Z,82.27
2022-12-03T22:10:23.505Z,81.15
2022-12-03T22:13:26.690Z,79.97
2022-12-03T22:16:29.521Z,81.67
2022-12-03T22:19:32.546Z,82.32
2022-12-03T22:22:37.288Z,81.70
2022-12-03T22:25:40.008Z,82.79
2022-12-03T22:28:44.718Z,81.88
2022-12-03T22:31:47.625Z,83.14
2022-12-03T22:34:50.625Z,83.50
2022-12-03T22:37:54.675Z,83.52
2022-12-03T22:40:57.665Z,83.38
2022-12-03T22:44:00.417Z,83.95
2022-12-03T22:47:04.122Z,84.14
2022-12-03T22:50:08.778Z,84.13
2022-12-03T22:53:13.250Z,83.75
2022-12-03T22:56:17.169Z,83.92
2022-12-03T22:59:20.254Z,83.85
2022-12-03T23:02:22.993Z,83.56
2022-12-03T23:05:25.867Z,83.46
2022-12-03T23:08:30.060Z,82.73
2022-12-03T23:11:33.361Z,82.34
2022-12-03T23:14:36.779Z,82.63
2022-12-03T23:17:39.917Z,82.71
2022-12-03T23:20:43.610Z,82.33
2022-12-03T23:23:48.066Z,82.97
2022-12-03T23:26:51.219Z,84.15
2022-12-03T23:29:54.371Z,84.74
2022-12-03T23:33:00.329Z,84.30
2022-12-03T23:36:06.463Z,84.39
2022-12-03T23:39:10.556Z,83.76
2022-12-03T23:42:13.335Z,83.06
2022-12-03T23:45:16.274Z,84.41
2022-12-03T23:48:19.020Z,83.98
2022-12-03T23:51:23.804Z,83.74
2022-12-03T23:54:27.927Z,84.21
2022-12-03T23:57:30.647Z,84.70
